Time;durP1;ratioP1;P1;durP2;ratioP2;P2;SDS_P1;SDS_P2;PMS_P1;PMS_P2;Temp;Humidity;BMP_temperature;BMP_pressure;BME280_temperature;BME280_humidity;BME280_pressure;Samples;Min_cycle;Max_cycle;Signal;HPM_P1;HPM_P2
2022/05/24 00:00:24;;;;;;;3.45;1.92;;;16.80;99.90;;;;;;4946192;28;20039;-62
2022/05/24 00:02:51;;;;;;;4.82;2.15;;;16.80;99.90;;;;;;4948067;28;20042;-63
2022/05/24 00:05:17;;;;;;;2.80;1.92;;;16.80;99.90;;;;;;4948803;28;20174;-61
2022/05/24 00:07:43;;;;;;;6.05;2.10;;;16.90;99.90;;;;;;4947749;28;20047;-62
2022/05/24 00:10:13;;;;;;;4.05;2.00;;;16.90;99.90;;;;;;4948768;28;20016;-63
2022/05/24 00:12:39;;;;;;;5.55;1.73;;;16.90;99.90;;;;;;4948230;28;20031;-62
2022/05/24 00:15:27;;;;;;;4.38;2.42;;;16.90;99.90;;;;;;4946906;28;20077;-62
2022/05/24 00:18:03;;;;;;;2.88;1.73;;;16.90;99.90;;;;;;4947413;28;20064;-61
2022/05/24 00:20:35;;;;;;;5.15;2.15;;;17.00;99.90;;;;;;4947451;28;20039;-62
2022/05/24 00:23:00;;;;;;;4.28;2.53;;;17.00;99.90;;;;;;4946522;28;20032;-61
2022/05/24 00:25:27;;;;;;;4.20;2.75;;;17.00;99.90;;;;;;4947044;28;20545;-62
2022/05/24 00:27:54;;;;;;;4.47;1.90;;;16.90;99.90;;;;;;4948945;28;20042;-61
2022/05/24 00:30:21;;;;;;;3.42;1.75;;;16.90;99.90;;;;;;4942740;28;20098;-61
2022/05/24 00:32:46;;;;;;;6.18;2.33;;;16.90;99.90;;;;;;4948004;28;20077;-62
2022/05/24 00:35:12;;;;;;;3.17;2.22;;;16.90;99.90;;;;;;4946257;28;20527;-59
2022/05/24 00:37:40;;;;;;;2.70;1.95;;;16.90;99.90;;;;;;4947394;28;20039;-61
2022/05/24 00:40:30;;;;;;;3.15;1.88;;;16.80;99.90;;;;;;4948966;28;20027;-62
2022/05/24 00:42:56;;;;;;;2.22;1.52;;;16.80;99.90;;;;;;4949603;28;20077;-62
2022/05/24 00:45:31;;;;;;;2.97;1.75;;;16.70;99.90;;;;;;4947064;28;20070;-64
2022/05/24 00:48:15;;;;;;;4.50;1.73;;;16.60;99.90;;;;;;4946259;28;20028;-63
2022/05/24 00:50:44;;;;;;;3.40;2.00;;;16.50;99.90;;;;;;4946270;28;20031;-62
2022/05/24 00:53:21;;;;;;;2.42;1.88;;;16.40;99.90;;;;;;4930724;28;20026;-63
2022/05/24 00:55:59;;;;;;;3.25;1.98;;;16.30;99.90;;;;;;4946654;28;20036;-63
2022/05/24 00:58:43;;;;;;;3.10;1.85;;;16.30;99.90;;;;;;4947445;28;20074;-62
2022/05/24 01:01:25;;;;;;;5.55;1.80;;;16.20;99.90;;;;;;4948572;28;20103;-62
2022/05/24 01:03:50;;;;;;;3.78;1.67;;;16.10;99.90;;;;;;4947187;28;20062;-62
2022/05/24 01:06:16;;;;;;;4.15;2.20;;;16.10;99.90;;;;;;4930335;28;20039;-61
2022/05/24 01:08:42;;;;;;;4.68;2.00;;;16.00;99.90;;;;;;4945555;28;20051;-62
2022/05/24 01:11:10;;;;;;;3.70;2.05;;;16.00;99.90;;;;;;4937327;28;20031;-64
2022/05/24 01:13:38;;;;;;;5.68;2.20;;;16.00;99.90;;;;;;4946632;28;20031;-62
2022/05/24 01:16:04;;;;;;;7.13;2.47;;;16.00;99.90;;;;;;4948908;28;20023;-62
2022/05/24 01:18:29;;;;;;;3.83;2.20;;;16.00;99.90;;;;;;4951275;28;20863;-62
2022/05/24 01:21:04;;;;;;;3.63;1.92;;;16.00;99.90;;;;;;4951364;28;20135;-62
2022/05/24 01:23:55;;;;;;;3.03;2.47;;;16.00;99.90;;;;;;4950970;28;20035;-63
2022/05/24 01:26:25;;;;;;;5.30;2.10;;;15.90;99.90;;;;;;4949057;28;20035;-63
2022/05/24 01:29:00;;;;;;;6.30;2.50;;;15.90;99.90;;;;;;4950177;28;20031;-62
2022/05/24 01:37:04;;;;;;;4.82;2.42;;;15.80;99.90;;;;;;4949823;28;20037;-63
2022/05/24 01:39:30;;;;;;;4.22;2.63;;;15.80;99.90;;;;;;4951878;28;20047;-62
2022/05/24 01:41:56;;;;;;;8.85;2.17;;;15.80;99.90;;;;;;4950998;28;20035;-62
2022/05/24 01:44:57;;;;;;;9.77;2.83;;;15.90;99.90;;;;;;4950468;29;20101;-61
2022/05/24 01:47:24;;;;;;;5.18;2.25;;;15.90;99.90;;;;;;4943125;28;20046;-62
2022/05/24 01:49:59;;;;;;;4.20;1.98;;;15.90;99.90;;;;;;4950275;28;20028;-62
2022/05/24 01:52:54;;;;;;;3.97;2.35;;;15.90;99.90;;;;;;4949903;28;20023;-62
2022/05/24 01:55:28;;;;;;;4.93;2.42;;;15.90;99.90;;;;;;4947717;28;20027;-62
2022/05/24 01:57:58;;;;;;;3.83;2.63;;;15.80;99.90;;;;;;4951727;28;20031;-62
2022/05/24 02:00:23;;;;;;;3.42;2.80;;;15.70;99.90;;;;;;4949232;28;20031;-63
2022/05/24 02:02:49;;;;;;;3.88;2.83;;;15.70;99.90;;;;;;4952831;28;20041;-62
2022/05/24 02:05:33;;;;;;;7.63;2.58;;;15.60;99.90;;;;;;4950374;28;20035;-61
2022/05/24 02:07:59;;;;;;;10.35;2.55;;;15.60;99.90;;;;;;4948942;28;20043;-63
2022/05/24 02:10:25;;;;;;;3.88;2.60;;;15.60;99.90;;;;;;4950236;28;20027;-61
2022/05/24 02:12:57;;;;;;;4.05;2.30;;;15.60;99.90;;;;;;4950934;28;20029;-61
2022/05/24 02:15:30;;;;;;;3.72;2.28;;;15.60;99.90;;;;;;4948065;28;20039;-61
2022/05/24 02:17:55;;;;;;;5.32;3.45;;;15.70;99.90;;;;;;4932198;28;20044;-61
2022/05/24 02:20:30;;;;;;;5.88;2.90;;;15.70;99.90;;;;;;4949809;28;20083;-63
2022/05/24 02:22:56;;;;;;;5.60;2.35;;;15.70;99.90;;;;;;4949124;28;20031;-63
2022/05/24 02:25:31;;;;;;;6.38;3.00;;;15.60;99.90;;;;;;4948442;28;20513;-61
2022/05/24 02:27:57;;;;;;;6.55;2.47;;;15.70;99.90;;;;;;4947780;28;20015;-62
2022/05/24 02:30:25;;;;;;;3.75;2.70;;;15.70;99.90;;;;;;4952884;28;20039;-62
2022/05/24 02:32:51;;;;;;;8.95;3.08;;;15.70;99.90;;;;;;4950034;28;20035;-62
2022/05/24 02:35:17;;;;;;;8.93;2.95;;;15.70;99.90;;;;;;4949976;28;20031;-61
2022/05/24 02:37:42;;;;;;;7.47;3.55;;;15.70;99.90;;;;;;4950049;28;20035;-61
2022/05/24 02:42:54;;;;;;;4.65;2.95;;;15.70;99.90;;;;;;4950997;28;20050;-63
2022/05/24 02:45:20;;;;;;;3.58;2.53;;;15.70;99.90;;;;;;4948049;28;20490;-63
2022/05/24 02:47:46;;;;;;;4.82;3.10;;;15.70;99.90;;;;;;4948978;28;20047;-63
2022/05/24 02:50:12;;;;;;;7.45;3.13;;;15.70;99.90;;;;;;4947694;28;20031;-63
2022/05/24 02:52:39;;;;;;;6.00;2.78;;;15.60;99.90;;;;;;4948960;28;20042;-64
2022/05/24 02:55:07;;;;;;;4.97;2.78;;;15.60;99.90;;;;;;4950046;28;20027;-63
2022/05/24 02:57:33;;;;;;;6.13;3.03;;;15.60;99.90;;;;;;4949974;28;20031;-62
2022/05/24 02:59:59;;;;;;;4.78;3.08;;;15.60;99.90;;;;;;4948897;28;20049;-62
2022/05/24 03:02:25;;;;;;;4.15;2.58;;;15.60;99.90;;;;;;4948952;28;20039;-63
2022/05/24 03:04:50;;;;;;;10.30;2.72;;;15.50;99.90;;;;;;4948811;28;20084;-62
2022/05/24 03:10:00;;;;;;;8.05;3.30;;;15.50;99.90;;;;;;4947070;28;20054;-62
2022/05/24 03:15:10;;;;;;;6.30;3.10;;;15.60;99.90;;;;;;4948868;28;20038;-61
2022/05/24 03:17:36;;;;;;;3.45;2.50;;;15.70;99.90;;;;;;4948444;28;20039;-61
2022/05/24 03:20:02;;;;;;;5.25;2.72;;;15.70;99.90;;;;;;4939831;28;20024;-61
2022/05/24 03:22:28;;;;;;;7.47;3.13;;;15.70;99.90;;;;;;4949137;28;20361;-62
2022/05/24 03:24:54;;;;;;;4.63;2.95;;;15.80;99.90;;;;;;4948349;28;20028;-62
2022/05/24 03:27:19;;;;;;;5.13;2.85;;;15.90;99.90;;;;;;4948497;28;20509;-61
2022/05/24 03:29:47;;;;;;;5.00;3.03;;;15.90;99.90;;;;;;4947773;28;20042;-63
2022/05/24 03:32:14;;;;;;;2.50;2.17;;;16.00;99.90;;;;;;4949415;28;20118;-62
2022/05/24 03:34:40;;;;;;;5.95;2.95;;;16.00;99.90;;;;;;4948018;28;20020;-61
2022/05/24 03:37:07;;;;;;;9.73;3.38;;;16.00;99.90;;;;;;4949609;28;20033;-62
2022/05/24 03:39:33;;;;;;;4.38;3.15;;;16.10;99.90;;;;;;4948634;28;20043;-62
2022/05/24 03:41:58;;;;;;;5.20;3.20;;;16.10;99.90;;;;;;4950822;28;20035;-61
2022/05/24 03:44:24;;;;;;;5.50;3.63;;;16.10;99.90;;;;;;4948941;28;20035;-64
2022/05/24 03:46:51;;;;;;;5.18;3.20;;;16.20;99.90;;;;;;4946478;28;20051;-62
2022/05/24 03:49:17;;;;;;;3.42;2.53;;;16.20;99.90;;;;;;4948160;28;20019;-62
2022/05/24 03:51:42;;;;;;;4.03;3.63;;;16.20;99.90;;;;;;4947506;28;20050;-62
2022/05/24 03:54:08;;;;;;;6.22;3.78;;;16.20;99.90;;;;;;4947947;28;20039;-64
2022/05/24 03:56:37;;;;;;;3.85;3.45;;;16.20;99.90;;;;;;4930311;29;20034;-64
2022/05/24 03:59:04;;;;;;;3.42;2.53;;;16.20;99.90;;;;;;4946830;28;20071;-62
2022/05/24 04:01:29;;;;;;;3.42;3.03;;;16.30;99.90;;;;;;4948457;28;20024;-61
2022/05/24 04:03:55;;;;;;;11.35;3.03;;;16.30;99.90;;;;;;4931552;28;20033;-62
2022/05/24 04:06:21;;;;;;;4.53;3.28;;;16.40;99.90;;;;;;4929280;28;20031;-62
2022/05/24 04:08:47;;;;;;;3.92;3.42;;;16.40;99.90;;;;;;4946402;28;20490;-63
2022/05/24 04:11:13;;;;;;;9.73;3.25;;;16.40;99.90;;;;;;4948412;28;20027;-64
2022/05/24 04:13:41;;;;;;;7.82;3.67;;;16.40;99.90;;;;;;4947966;28;20031;-63
2022/05/24 04:16:08;;;;;;;4.03;3.00;;;16.40;99.90;;;;;;4947242;28;20386;-63
2022/05/24 04:18:35;;;;;;;4.93;3.00;;;16.40;99.90;;;;;;4949116;28;20038;-62
2022/05/24 04:21:01;;;;;;;4.05;2.88;;;16.50;99.90;;;;;;4947883;28;20055;-62
2022/05/24 04:23:26;;;;;;;6.78;2.75;;;16.50;99.90;;;;;;4947705;28;20039;-62
2022/05/24 04:25:54;;;;;;;5.18;3.38;;;16.50;99.90;;;;;;4946689;28;20372;-62
2022/05/24 04:28:20;;;;;;;3.83;3.30;;;16.50;99.90;;;;;;4948244;28;20031;-61
2022/05/24 04:30:48;;;;;;;3.85;2.60;;;16.50;99.90;;;;;;4949404;28;20038;-62
2022/05/24 04:33:14;;;;;;;3.35;2.50;;;16.60;99.90;;;;;;4948005;28;20517;-62
2022/05/24 04:35:40;;;;;;;4.97;2.42;;;16.60;99.90;;;;;;4947446;28;20039;-60
2022/05/24 04:38:06;;;;;;;6.97;2.50;;;16.60;99.90;;;;;;4946835;28;20038;-61
2022/05/24 04:43:24;;;;;;;4.88;2.30;;;16.70;99.90;;;;;;4930302;28;20035;-62
2022/05/24 04:45:53;;;;;;;2.45;2.25;;;16.70;99.90;;;;;;4948899;28;20031;-62
2022/05/24 04:48:19;;;;;;;2.13;1.80;;;16.80;99.90;;;;;;4931978;28;20038;-63
2022/05/24 04:50:44;;;;;;;3.30;1.85;;;16.80;99.90;;;;;;4947781;28;20142;-62
2022/05/24 04:53:10;;;;;;;4.15;1.80;;;16.80;99.90;;;;;;4951574;28;20224;-64
2022/05/24 04:55:36;;;;;;;2.17;1.98;;;16.80;99.90;;;;;;4943198;28;20414;-62
2022/05/24 04:58:02;;;;;;;3.25;1.67;;;16.80;99.90;;;;;;4951268;28;20019;-62
2022/05/24 05:00:27;;;;;;;3.35;1.50;;;16.80;99.90;;;;;;4951910;28;20032;-62
2022/05/24 05:02:53;;;;;;;2.47;1.63;;;16.80;99.90;;;;;;4953075;28;20035;-62
2022/05/24 05:05:19;;;;;;;2.30;1.85;;;16.80;99.90;;;;;;4949306;28;20491;-64
2022/05/24 05:07:44;;;;;;;3.45;1.90;;;16.80;99.90;;;;;;4951028;28;20036;-62
2022/05/24 05:10:12;;;;;;;2.85;1.73;;;16.80;99.90;;;;;;4951576;28;20027;-62
2022/05/24 05:12:38;;;;;;;2.30;1.80;;;16.90;99.90;;;;;;4950933;28;20039;-62
2022/05/24 05:15:06;;;;;;;4.03;1.83;;;17.00;99.90;;;;;;4933540;28;20035;-62
2022/05/24 05:17:32;;;;;;;1.92;1.50;;;17.20;99.90;;;;;;4952868;28;20039;-63
2022/05/24 05:19:59;;;;;;;2.85;1.40;;;17.40;99.90;;;;;;4932990;28;20031;-64
2022/05/24 05:22:25;;;;;;;1.67;1.50;;;17.70;99.90;;;;;;4951701;28;20050;-62
2022/05/24 05:24:51;;;;;;;2.13;1.60;;;18.00;99.90;;;;;;4951892;28;20684;-62
2022/05/24 05:27:18;;;;;;;2.90;1.95;;;18.30;99.90;;;;;;4951805;28;20053;-62
2022/05/24 05:32:30;;;;;;;3.78;2.30;;;18.70;99.90;;;;;;4950982;28;20218;-62
2022/05/24 05:34:57;;;;;;;2.50;1.95;;;18.90;99.90;;;;;;4952137;28;20040;-62
2022/05/24 05:37:23;;;;;;;2.63;1.63;;;18.90;99.90;;;;;;4949645;28;20023;-62
2022/05/24 05:39:49;;;;;;;3.53;2.17;;;18.90;99.90;;;;;;4949425;28;20783;-62
2022/05/24 05:42:14;;;;;;;3.47;1.70;;;18.90;99.90;;;;;;4950042;28;20119;-62
2022/05/24 05:44:40;;;;;;;4.95;2.30;;;18.90;99.90;;;;;;4949342;28;20427;-64
2022/05/24 05:47:06;;;;;;;2.30;1.88;;;19.00;99.90;;;;;;4949797;28;20062;-62
2022/05/24 05:49:33;;;;;;;4.75;1.88;;;19.20;99.90;;;;;;4950230;28;20390;-61
2022/05/24 05:51:59;;;;;;;2.03;1.88;;;19.20;99.90;;;;;;4949127;28;20054;-64
2022/05/24 05:54:24;;;;;;;3.85;2.25;;;19.40;99.90;;;;;;4948660;28;20485;-62
2022/05/24 05:56:50;;;;;;;3.78;1.75;;;19.60;99.90;;;;;;4950584;28;20027;-62
2022/05/24 05:59:16;;;;;;;2.70;1.90;;;19.80;99.90;;;;;;4949379;28;20058;-62
2022/05/24 06:01:42;;;;;;;2.78;1.77;;;19.90;99.90;;;;;;4950060;28;20065;-62
2022/05/24 06:04:09;;;;;;;2.83;2.53;;;20.00;99.90;;;;;;4950661;28;20107;-62
2022/05/24 06:06:40;;;;;;;2.90;2.38;;;20.00;99.90;;;;;;4948718;28;20094;-64
2022/05/24 06:09:05;;;;;;;5.70;2.10;;;20.30;99.90;;;;;;4950089;28;20035;-63
2022/05/24 06:11:31;;;;;;;2.33;2.13;;;20.70;99.90;;;;;;4945956;28;20537;-62
2022/05/24 06:13:57;;;;;;;2.40;1.85;;;20.80;99.90;;;;;;4949634;28;20027;-61
2022/05/24 06:16:22;;;;;;;4.00;1.67;;;21.10;99.90;;;;;;4949113;28;20027;-62
2022/05/24 06:18:48;;;;;;;1.85;1.60;;;21.40;99.90;;;;;;4949868;28;20473;-63
2022/05/24 06:21:14;;;;;;;2.60;1.45;;;21.90;96.70;;;;;;4949950;28;20027;-62
2022/05/24 06:23:40;;;;;;;4.45;1.63;;;22.80;96.20;;;;;;4951224;28;20039;-63
2022/05/24 06:26:07;;;;;;;3.63;1.10;;;23.60;92.10;;;;;;4949705;28;20035;-63
2022/05/24 06:28:32;;;;;;;1.63;1.33;;;24.60;89.20;;;;;;4948970;28;20109;-63
2022/05/24 06:30:58;;;;;;;1.70;1.38;;;25.70;82.90;;;;;;4950041;28;20463;-63
2022/05/24 06:33:23;;;;;;;2.85;1.40;;;26.60;76.00;;;;;;4949895;28;20046;-63
2022/05/24 06:35:49;;;;;;;2.08;1.40;;;27.50;69.80;;;;;;4949780;28;20038;-63
2022/05/24 06:38:16;;;;;;;5.00;1.42;;;27.80;67.20;;;;;;4949585;28;20110;-63
2022/05/24 06:40:42;;;;;;;1.85;1.10;;;27.60;66.20;;;;;;4948895;28;20098;-63
2022/05/24 06:43:09;;;;;;;2.10;1.33;;;27.30;65.00;;;;;;4949826;28;20015;-63
2022/05/24 06:45:34;;;;;;;1.60;1.15;;;26.80;65.20;;;;;;4947888;28;20032;-63
2022/05/24 06:48:00;;;;;;;1.90;1.15;;;26.00;65.20;;;;;;4949720;28;20387;-63
2022/05/24 06:50:26;;;;;;;3.95;1.10;;;25.30;66.70;;;;;;4948480;28;20438;-63
2022/05/24 06:52:56;;;;;;;2.08;0.95;;;24.60;69.40;;;;;;4950560;28;20885;-63
2022/05/24 06:55:23;;;;;;;1.40;0.83;;;24.20;71.20;;;;;;4949852;28;20031;-63
2022/05/24 06:57:50;;;;;;;1.40;0.85;;;24.00;73.20;;;;;;4950534;28;20379;-63
2022/05/24 07:03:04;;;;;;;1.92;0.70;;;23.80;73.30;;;;;;4949452;28;20097;-62
2022/05/24 07:05:30;;;;;;;0.80;0.80;;;23.40;74.90;;;;;;4949293;28;20035;-62
2022/05/24 07:07:58;;;;;;;1.10;0.63;;;23.40;75.00;;;;;;4949011;28;20406;-64
2022/05/24 07:10:24;;;;;;;1.10;0.90;;;23.40;75.10;;;;;;4949420;28;20070;-63
2022/05/24 07:13:07;;;;;;;1.48;0.90;;;23.60;74.80;;;;;;4950340;28;20023;-65
2022/05/24 07:15:33;;;;;;;0.85;0.80;;;23.70;73.50;;;;;;4947840;28;20125;-64
2022/05/24 07:18:00;;;;;;;0.90;0.90;;;23.70;74.50;;;;;;4941292;28;20043;-62
2022/05/24 07:20:27;;;;;;;1.23;0.70;;;23.60;74.50;;;;;;4940634;28;20387;-62
2022/05/24 07:22:54;;;;;;;2.08;0.77;;;23.40;74.60;;;;;;4948819;28;20134;-62
2022/05/24 07:25:21;;;;;;;0.77;0.77;;;23.40;75.90;;;;;;4948020;28;20118;-62
2022/05/24 07:27:46;;;;;;;0.98;0.88;;;23.80;75.90;;;;;;4950202;28;20031;-64
2022/05/24 07:30:12;;;;;;;1.83;0.80;;;24.60;72.90;;;;;;4949543;28;20070;-63
2022/05/24 07:32:38;;;;;;;1.77;1.10;;;25.20;70.10;;;;;;4949859;28;20450;-62
2022/05/24 07:35:05;;;;;;;1.80;1.00;;;25.50;68.70;;;;;;4948407;28;20038;-63
2022/05/24 07:37:32;;;;;;;1.20;0.82;;;25.40;68.10;;;;;;4949808;28;20054;-65
2022/05/24 07:48:13;;;;;;;1.55;1.10;;;24.80;70.10;;;;;;4951437;28;20042;-63
2022/05/24 07:50:39;;;;;;;1.08;0.98;;;24.90;70.30;;;;;;4948306;28;20164;-63
2022/05/24 07:53:06;;;;;;;1.73;1.08;;;25.20;69.90;;;;;;4949869;28;20487;-64
2022/05/24 07:55:31;;;;;;;1.90;1.00;;;25.40;69.00;;;;;;4950937;28;20035;-63
2022/05/24 07:58:00;;;;;;;1.15;0.95;;;25.50;67.50;;;;;;4949943;28;20019;-62
2022/05/24 08:00:27;;;;;;;1.95;0.93;;;25.20;68.50;;;;;;4948781;28;20039;-61
2022/05/24 08:02:53;;;;;;;1.58;1.00;;;25.00;68.50;;;;;;4931559;29;20183;-62
2022/05/24 08:05:21;;;;;;;0.82;0.80;;;24.80;69.10;;;;;;4947527;28;20035;-62
2022/05/24 08:07:49;;;;;;;3.10;1.02;;;24.50;70.20;;;;;;4933382;29;20028;-62
2022/05/24 08:10:15;;;;;;;1.17;1.00;;;24.40;70.80;;;;;;4947726;28;20034;-62
2022/05/24 08:12:41;;;;;;;1.42;1.00;;;24.30;69.30;;;;;;4949220;28;20027;-61
2022/05/24 08:15:10;;;;;;;1.55;1.00;;;24.10;70.90;;;;;;4947084;28;20058;-62
2022/05/24 08:17:36;;;;;;;1.70;0.88;;;23.90;69.60;;;;;;4949753;28;20063;-62
2022/05/24 08:20:03;;;;;;;1.50;0.93;;;23.70;70.50;;;;;;4949307;28;20031;-61
2022/05/24 08:22:29;;;;;;;1.25;0.77;;;23.70;70.70;;;;;;4950902;28;20023;-62
2022/05/24 08:24:55;;;;;;;0.88;0.88;;;23.80;70.80;;;;;;4949789;28;20030;-62
2022/05/24 08:27:21;;;;;;;1.52;0.73;;;24.10;70.00;;;;;;4949677;28;20034;-64
2022/05/24 08:29:46;;;;;;;1.95;0.80;;;24.40;69.20;;;;;;4949286;28;20035;-62
2022/05/24 08:32:12;;;;;;;0.80;0.70;;;24.50;68.10;;;;;;4949012;28;20479;-62
2022/05/24 08:34:38;;;;;;;0.90;0.80;;;24.70;66.90;;;;;;4946804;28;20035;-62
2022/05/24 08:37:05;;;;;;;2.92;0.95;;;24.90;65.90;;;;;;4950366;28;20490;-62
2022/05/24 08:39:31;;;;;;;1.17;0.88;;;25.00;65.60;;;;;;4947102;28;20027;-64
2022/05/24 08:42:17;;;;;;;0.80;0.63;;;25.10;65.50;;;;;;4932452;28;20341;-62
2022/05/24 08:50:44;;;;;;;4.20;1.00;;;24.90;65.90;;;;;;4949507;28;20038;-62
2022/05/24 08:53:12;;;;;;;3.63;0.88;;;24.80;66.70;;;;;;4929932;28;20027;-62
2022/05/24 08:55:40;;;;;;;1.35;0.70;;;24.70;65.10;;;;;;4947055;28;20039;-63
2022/05/24 08:58:14;;;;;;;2.42;0.80;;;24.80;66.30;;;;;;4950323;28;20026;-62
2022/05/24 09:00:42;;;;;;;1.08;0.77;;;24.60;65.60;;;;;;4948700;28;20066;-62
2022/05/24 09:03:09;;;;;;;2.50;0.80;;;24.60;66.00;;;;;;4947718;28;20041;-62
2022/05/24 09:05:55;;;;;;;1.42;0.70;;;24.50;66.20;;;;;;4947217;28;20114;-62
2022/05/24 09:08:41;;;;;;;0.88;0.70;;;24.30;65.90;;;;;;4948962;28;20036;-62
2022/05/24 09:11:13;;;;;;;1.02;0.70;;;24.30;66.40;;;;;;4949822;28;20031;-62
2022/05/24 09:13:51;;;;;;;1.95;0.60;;;24.50;66.50;;;;;;4946185;28;20090;-63
2022/05/24 09:16:17;;;;;;;0.88;0.70;;;24.80;66.10;;;;;;4936937;28;20174;-62
2022/05/24 09:19:10;;;;;;;3.05;0.73;;;25.00;64.70;;;;;;4930585;29;20552;-63
2022/05/24 09:21:42;;;;;;;2.30;0.90;;;25.10;64.40;;;;;;4948266;28;20035;-62
2022/05/24 09:24:37;;;;;;;1.00;0.65;;;25.10;65.20;;;;;;4949407;28;20031;-62
2022/05/24 09:27:28;;;;;;;0.93;0.90;;;24.80;64.70;;;;;;4946332;28;20039;-63
2022/05/24 09:29:57;;;;;;;0.70;0.63;;;24.60;65.60;;;;;;4948844;28;20039;-64
2022/05/24 09:32:31;;;;;;;2.00;0.70;;;24.50;65.90;;;;;;4945928;28;20043;-64
2022/05/24 09:35:09;;;;;;;3.80;0.93;;;24.30;66.10;;;;;;4948692;28;20031;-64
2022/05/24 09:37:36;;;;;;;1.75;0.95;;;24.10;66.90;;;;;;4953293;28;20023;-62
2022/05/24 09:40:04;;;;;;;0.82;0.82;;;23.80;67.20;;;;;;4950411;28;20040;-64
2022/05/24 09:42:33;;;;;;;1.00;0.90;;;23.60;69.50;;;;;;4953108;28;20144;-62
2022/05/24 09:45:00;;;;;;;1.00;0.68;;;23.20;69.70;;;;;;4951362;28;20039;-61
2022/05/24 09:47:29;;;;;;;0.80;0.80;;;22.90;70.90;;;;;;4951468;28;20091;-62
2022/05/24 09:50:15;;;;;;;1.70;0.90;;;22.60;74.70;;;;;;4933148;29;20032;-62
2022/05/24 09:53:00;;;;;;;1.63;0.90;;;22.40;76.90;;;;;;4950341;28;20031;-61
2022/05/24 09:55:26;;;;;;;1.17;0.80;;;22.20;78.50;;;;;;4949655;28;20027;-61
2022/05/24 09:57:51;;;;;;;1.52;0.82;;;22.10;79.30;;;;;;4952648;28;20022;-61
2022/05/24 10:00:23;;;;;;;3.28;1.00;;;21.90;80.10;;;;;;4951481;28;20039;-61
2022/05/24 10:03:02;;;;;;;2.35;1.15;;;21.70;82.00;;;;;;4950808;28;20038;-61
2022/05/24 10:05:29;;;;;;;1.55;1.00;;;21.60;82.50;;;;;;4950640;28;20388;-61
2022/05/24 10:08:12;;;;;;;2.55;1.13;;;21.50;84.70;;;;;;4951491;28;20046;-63
2022/05/24 10:10:44;;;;;;;1.65;1.20;;;21.30;85.80;;;;;;4951591;28;20039;-63
2022/05/24 10:13:31;;;;;;;1.45;1.30;;;21.10;88.40;;;;;;4951317;28;20051;-62
2022/05/24 10:16:14;;;;;;;2.88;1.67;;;20.90;90.50;;;;;;4952170;28;20049;-62
2022/05/24 10:19:00;;;;;;;2.47;1.48;;;20.70;91.90;;;;;;4951461;28;20035;-62
2022/05/24 10:21:30;;;;;;;2.85;1.40;;;20.30;92.10;;;;;;4949768;28;20039;-62
2022/05/24 10:24:23;;;;;;;2.97;1.42;;;19.90;93.00;;;;;;4950384;28;20043;-64
2022/05/24 10:27:13;;;;;;;1.60;1.40;;;19.60;94.70;;;;;;4951442;28;20630;-61
2022/05/24 10:30:02;;;;;;;8.32;1.30;;;19.60;97.20;;;;;;4950373;28;20035;-62
2022/05/24 10:39:25;;;;;;;1.33;1.10;;;19.60;99.90;;;;;;4945488;28;20038;-61
2022/05/24 10:42:06;;;;;;;1.30;1.20;;;19.70;99.90;;;;;;4950659;28;20126;-61
2022/05/24 10:44:42;;;;;;;1.05;0.95;;;19.90;99.90;;;;;;4950466;28;20023;-62
2022/05/24 10:47:27;;;;;;;1.55;0.80;;;20.20;99.90;;;;;;4950973;28;20094;-61
2022/05/24 10:50:01;;;;;;;1.75;1.02;;;20.60;99.90;;;;;;4950574;28;20035;-62
2022/05/24 10:52:48;;;;;;;2.97;0.50;;;20.80;99.90;;;;;;4950168;28;20114;-63
2022/05/24 10:55:21;;;;;;;0.73;0.43;;;21.10;99.90;;;;;;4951626;28;20067;-61
2022/05/24 10:58:00;;;;;;;1.23;0.50;;;21.30;94.10;;;;;;4932877;29;20079;-61
2022/05/24 11:00:36;;;;;;;0.60;0.40;;;21.00;92.70;;;;;;4930482;29;20043;-61
2022/05/24 11:03:14;;;;;;;1.75;0.60;;;20.70;94.30;;;;;;4931577;29;20038;-61
2022/05/24 11:05:52;;;;;;;0.95;0.40;;;21.10;93.70;;;;;;4929733;29;20060;-62
2022/05/24 11:08:55;;;;;;;0.73;0.40;;;22.00;93.40;;;;;;4930886;29;20122;-62
2022/05/24 11:11:43;;;;;;;0.45;0.38;;;22.70;88.20;;;;;;4930287;29;20028;-62
2022/05/24 11:14:28;;;;;;;0.82;0.40;;;22.90;83.70;;;;;;4930011;29;20148;-61
2022/05/24 11:16:57;;;;;;;0.43;0.35;;;23.00;84.90;;;;;;4928783;29;20027;-62
2022/05/24 11:19:40;;;;;;;0.20;0.20;;;23.20;81.50;;;;;;4929843;29;20070;-61
2022/05/24 11:22:33;;;;;;;0.52;0.40;;;23.40;80.80;;;;;;4930074;29;20059;-63
2022/05/24 11:25:22;;;;;;;0.30;0.30;;;23.70;77.80;;;;;;4876538;29;20441;-62
2022/05/24 11:27:50;;;;;;;1.85;0.30;;;24.10;75.50;;;;;;4950635;28;20062;-64
2022/05/24 11:30:33;;;;;;;0.30;0.30;;;24.40;73.60;;;;;;4937123;28;20028;-64
2022/05/24 11:33:07;;;;;;;0.60;0.30;;;25.00;74.10;;;;;;4948627;28;20119;-62
2022/05/24 11:35:38;;;;;;;0.57;0.30;;;25.40;70.20;;;;;;4949844;28;20031;-62
2022/05/24 11:38:22;;;;;;;0.60;0.40;;;25.60;69.60;;;;;;4950457;28;20035;-64
2022/05/24 11:40:54;;;;;;;0.65;0.28;;;25.50;67.40;;;;;;4948815;28;20106;-61
2022/05/24 11:43:44;;;;;;;0.45;0.40;;;25.30;65.70;;;;;;4950540;28;20363;-62
2022/05/24 11:46:11;;;;;;;1.23;0.33;;;25.00;66.30;;;;;;4930460;29;20471;-62
2022/05/24 11:48:49;;;;;;;0.80;0.20;;;24.60;66.30;;;;;;4931654;29;20115;-65
2022/05/24 11:51:40;;;;;;;0.73;0.30;;;24.30;66.80;;;;;;4945176;28;20376;-62
2022/05/24 11:54:12;;;;;;;0.60;0.30;;;24.10;67.50;;;;;;4949719;28;20039;-64
2022/05/24 11:56:38;;;;;;;0.55;0.30;;;24.00;69.50;;;;;;4949612;28;20035;-62
2022/05/24 11:59:06;;;;;;;3.67;0.40;;;24.10;70.90;;;;;;4943183;28;20028;-62
2022/05/24 12:01:44;;;;;;;0.30;0.20;;;24.30;69.50;;;;;;4928953;29;20026;-63
2022/05/24 12:09:59;;;;;;;1.08;0.30;;;25.70;64.60;;;;;;4947958;28;20066;-62
2022/05/24 12:12:34;;;;;;;0.85;0.30;;;26.20;63.10;;;;;;4945791;28;20691;-63
2022/05/24 12:15:22;;;;;;;0.30;0.30;;;26.50;60.90;;;;;;4933796;28;20355;-62
2022/05/24 12:18:00;;;;;;;0.40;0.40;;;26.40;61.50;;;;;;4941708;28;20423;-64
2022/05/24 12:20:34;;;;;;;1.05;0.30;;;26.60;58.70;;;;;;4947915;28;20066;-62
2022/05/24 12:23:40;;;;;;;1.23;0.30;;;26.70;59.20;;;;;;4947316;28;20039;-63
2022/05/24 12:26:15;;;;;;;0.95;0.35;;;26.50;59.40;;;;;;4945455;28;20035;-63
2022/05/24 12:28:50;;;;;;;1.75;0.40;;;26.50;59.90;;;;;;4947022;29;20390;-62
2022/05/24 12:31:29;;;;;;;0.50;0.40;;;26.40;58.60;;;;;;4947379;28;20031;-61
2022/05/24 12:33:59;;;;;;;0.80;0.30;;;26.40;60.90;;;;;;4948275;28;20264;-63
2022/05/24 12:36:45;;;;;;;0.52;0.32;;;26.70;61.00;;;;;;4946429;28;20119;-61
2022/05/24 12:39:12;;;;;;;0.95;0.30;;;26.70;59.60;;;;;;4945149;28;20130;-63
2022/05/24 12:41:59;;;;;;;1.30;0.40;;;26.60;59.30;;;;;;4941779;28;20084;-63
2022/05/24 12:44:41;;;;;;;0.40;0.30;;;26.80;58.50;;;;;;4943420;28;20121;-63
2022/05/24 12:47:06;;;;;;;2.08;0.30;;;27.00;57.40;;;;;;4948586;28;20446;-62
2022/05/24 12:49:35;;;;;;;2.67;0.40;;;27.20;57.20;;;;;;4936025;28;20027;-63
2022/05/24 12:52:14;;;;;;;0.40;0.30;;;27.40;57.20;;;;;;4945829;28;20042;-62
2022/05/24 12:54:46;;;;;;;0.45;0.30;;;27.60;57.20;;;;;;4947151;28;20050;-62
2022/05/24 12:57:17;;;;;;;0.38;0.30;;;27.90;56.10;;;;;;4913750;29;20039;-64
2022/05/24 12:59:50;;;;;;;1.55;0.30;;;27.60;56.80;;;;;;4935718;28;20043;-63
2022/05/24 13:02:37;;;;;;;1.23;0.40;;;27.60;56.30;;;;;;4927876;29;20046;-64
2022/05/24 13:05:02;;;;;;;0.40;0.30;;;27.60;55.20;;;;;;4925430;28;20046;-62
2022/05/24 13:07:37;;;;;;;0.32;0.30;;;27.70;54.90;;;;;;4927266;29;20032;-63
2022/05/24 13:10:27;;;;;;;0.25;0.10;;;27.80;54.20;;;;;;4927425;29;20111;-63
2022/05/24 13:13:00;;;;;;;0.30;0.30;;;28.00;52.10;;;;;;4929512;29;20159;-63
2022/05/24 13:15:39;;;;;;;0.32;0.30;;;27.90;52.80;;;;;;4929261;29;20064;-62
2022/05/24 13:18:12;;;;;;;0.30;0.22;;;27.70;50.70;;;;;;4932582;29;20039;-63
2022/05/24 13:20:44;;;;;;;1.42;0.50;;;27.60;50.40;;;;;;4931430;29;20087;-61
2022/05/24 13:23:15;;;;;;;1.00;0.30;;;27.40;50.40;;;;;;4932420;28;20059;-61
2022/05/24 13:26:11;;;;;;;0.57;0.38;;;27.30;49.70;;;;;;4932103;29;20044;-60
2022/05/24 13:28:37;;;;;;;1.55;0.20;;;27.30;51.00;;;;;;4932910;29;20103;-61
2022/05/24 13:33:58;;;;;;;0.20;0.20;;;27.20;53.10;;;;;;4932495;29;20046;-61
2022/05/24 13:36:40;;;;;;;0.63;0.30;;;27.60;50.70;;;;;;4930924;29;20028;-61
2022/05/24 13:39:48;;;;;;;0.93;0.30;;;28.10;50.60;;;;;;4945874;28;20031;-61
2022/05/24 13:42:17;;;;;;;0.20;0.20;;;28.20;49.50;;;;;;4932450;28;20495;-61
2022/05/24 13:45:05;;;;;;;0.32;0.30;;;28.10;51.30;;;;;;4932860;28;20256;-62
2022/05/24 13:47:37;;;;;;;2.03;0.30;;;27.70;49.90;;;;;;4932925;29;20062;-62
2022/05/24 13:50:36;;;;;;;0.35;0.30;;;27.30;48.50;;;;;;4931389;28;20498;-62
2022/05/24 13:53:25;;;;;;;0.40;0.40;;;26.80;49.90;;;;;;4931792;29;20043;-63
2022/05/24 13:56:03;;;;;;;1.42;0.30;;;26.80;49.60;;;;;;4931401;28;20046;-63
2022/05/24 13:58:41;;;;;;;0.93;0.30;;;26.90;49.30;;;;;;4931824;29;20027;-63